LFKS 301030Z AUTO 05016KT 9999 SCT054 20/11 Q1016

ElémentsDécodage
LFKS Station météo située sur l'aérodrome de SOLENZARA
301030Z émis le 30 du mois à 10h30 UTC
AUTO Bulletin édité par un automate
05016KT vent du 050°, 16 noeuds
9999 visibilité horizontale supérieure à 10 Km
SCT054 nuages épars (3/8 à 4/8) à 5400 pieds
20/11 température 20°C, point de rosée 11°C
 soit une humidité relative de 56%
Q1016 la pression au niveau de la mer (QNH) est de 1016 hPa